TimeMDT,TemperatureF,Dew PointF,Humidity,Sea Level PressureIn,VisibilityMPH,Wind Direction,Wind SpeedMPH,Gust SpeedMPH,PrecipitationIn,Events,Conditions,WindDirDegrees,DateUTC
12:15 AM,69.8,55.4,60,30.17,10.0,SSE,4.6,-,N/A,,Clear,150,2012-07-12 06:15:00
12:35 AM,69.8,57.2,64,30.17,10.0,SE,5.8,-,N/A,,Clear,130,2012-07-12 06:35:00
12:55 AM,69.8,59.0,68,30.17,10.0,SSE,4.6,-,N/A,,Clear,150,2012-07-12 06:55:00
1:15 AM,69.8,59.0,68,30.17,10.0,SE,3.5,-,N/A,,Clear,140,2012-07-12 07:15:00
1:35 AM,69.8,59.0,68,30.16,10.0,South,5.8,-,N/A,,Clear,180,2012-07-12 07:35:00
1:55 AM,69.8,59.0,68,30.16,10.0,Calm,Calm,-,N/A,,Clear,0,2012-07-12 07:55:00
2:15 AM,68.0,57.2,68,30.17,10.0,Calm,Calm,-,N/A,,Clear,0,2012-07-12 08:15:00
2:35 AM,66.2,57.2,73,30.17,10.0,Calm,Calm,-,N/A,,Clear,0,2012-07-12 08:35:00
2:55 AM,64.4,57.2,77,30.16,10.0,Calm,Calm,-,N/A,,Clear,0,2012-07-12 08:55:00
3:15 AM,64.4,55.4,73,30.15,10.0,Calm,Calm,-,N/A,,Clear,0,2012-07-12 09:15:00
3:35 AM,64.4,55.4,73,30.16,10.0,Calm,Calm,-,N/A,,Clear,0,2012-07-12 09:35:00
3:55 AM,64.4,57.2,77,30.15,10.0,NE,4.6,-,N/A,,Clear,40,2012-07-12 09:55:00
4:15 AM,64.4,57.2,77,30.15,10.0,ENE,4.6,-,N/A,,Clear,60,2012-07-12 10:15:00
4:35 AM,64.4,57.2,77,30.15,10.0,East,4.6,-,N/A,,Clear,90,2012-07-12 10:35:00
4:55 AM,64.4,57.2,77,30.15,10.0,ENE,3.5,-,N/A,,Clear,70,2012-07-12 10:55:00
5:15 AM,64.4,57.2,77,30.15,10.0,Calm,Calm,-,N/A,,Clear,0,2012-07-12 11:15:00
5:35 AM,62.6,55.4,77,30.15,10.0,ENE,3.5,-,N/A,,Clear,60,2012-07-12 11:35:00
5:55 AM,64.4,55.4,73,30.16,10.0,ENE,5.8,-,N/A,,Clear,70,2012-07-12 11:55:00
6:15 AM,64.4,57.2,77,30.16,10.0,NE,4.6,-,N/A,,Clear,50,2012-07-12 12:15:00
6:35 AM,64.4,55.4,73,30.16,10.0,Calm,Calm,-,N/A,,Clear,0,2012-07-12 12:35:00
6:55 AM,68.0,57.2,68,30.17,10.0,Calm,Calm,-,N/A,,Clear,0,2012-07-12 12:55:00
7:15 AM,69.8,57.2,64,30.18,10.0,Calm,Calm,-,N/A,,Clear,0,2012-07-12 13:15:00
7:35 AM,71.6,57.2,60,30.18,10.0,Calm,Calm,-,N/A,,Clear,0,2012-07-12 13:35:00
7:55 AM,71.6,57.2,60,30.19,10.0,Calm,Calm,-,N/A,,Clear,0,2012-07-12 13:55:00
8:15 AM,73.4,55.4,53,30.20,10.0,Calm,Calm,-,N/A,,Scattered Clouds,0,2012-07-12 14:15:00
8:35 AM,75.2,55.4,50,30.20,10.0,ESE,6.9,-,N/A,,Scattered Clouds,120,2012-07-12 14:35:00
8:55 AM,77.0,57.2,50,30.21,10.0,SSE,5.8,-,N/A,,Clear,150,2012-07-12 14:55:00
9:15 AM,77.0,57.2,50,30.21,10.0,SSE,10.4,-,N/A,,Clear,150,2012-07-12 15:15:00
9:35 AM,78.8,55.4,44,30.21,10.0,SE,12.7,17.3,N/A,,Clear,140,2012-07-12 15:35:00
9:55 AM,78.8,55.4,44,30.21,10.0,ESE,12.7,18.4,N/A,,Clear,120,2012-07-12 15:55:00
10:15 AM,80.6,53.6,39,30.20,10.0,ESE,11.5,16.1,N/A,,Clear,120,2012-07-12 16:15:00
10:35 AM,80.6,55.4,42,30.20,10.0,SE,10.4,16.1,N/A,,Clear,130,2012-07-12 16:35:00
10:55 AM,80.6,53.6,39,30.20,10.0,ESE,11.5,-,N/A,,Clear,120,2012-07-12 16:55:00
11:15 AM,82.4,53.6,37,30.19,10.0,SE,9.2,-,N/A,,Clear,140,2012-07-12 17:15:00
11:35 AM,82.4,51.8,35,30.19,10.0,East,12.7,18.4,N/A,,Clear,100,2012-07-12 17:35:00
11:55 AM,82.4,51.8,35,30.19,10.0,East,8.1,-,N/A,,Clear,100,2012-07-12 17:55:00
12:15 PM,86.0,50.0,29,30.18,10.0,ESE,9.2,16.1,N/A,,Scattered Clouds,110,2012-07-12 18:15:00
12:35 PM,86.0,51.8,31,30.18,10.0,East,8.1,-,N/A,,Scattered Clouds,90,2012-07-12 18:35:00
12:55 PM,86.0,50.0,29,30.17,10.0,SE,9.2,-,N/A,,Mostly Cloudy,130,2012-07-12 18:55:00
1:15 PM,86.0,50.0,29,30.16,10.0,East,8.1,-,N/A,,Scattered Clouds,90,2012-07-12 19:15:00
1:35 PM,86.0,50.0,29,30.15,10.0,Calm,Calm,-,N/A,,Scattered Clouds,0,2012-07-12 19:35:00
1:55 PM,87.8,50.0,27,30.15,10.0,ENE,8.1,-,N/A,,Clear,70,2012-07-12 19:55:00
2:15 PM,87.8,46.4,24,30.14,10.0,SE,8.1,-,N/A,,Clear,130,2012-07-12 20:15:00
2:35 PM,87.8,44.6,22,30.13,10.0,ESE,8.1,-,N/A,,Scattered Clouds,110,2012-07-12 20:35:00
2:55 PM,87.8,46.4,24,30.13,10.0,East,9.2,-,N/A,,Scattered Clouds,80,2012-07-12 20:55:00
3:15 PM,87.8,46.4,24,30.12,10.0,NE,3.5,-,N/A,,Clear,50,2012-07-12 21:15:00
3:35 PM,87.8,44.6,22,30.11,10.0,East,13.8,17.3,N/A,,Mostly Cloudy,90,2012-07-12 21:35:00
3:55 PM,89.6,46.4,22,30.10,10.0,Calm,Calm,-,N/A,,Scattered Clouds,0,2012-07-12 21:55:00
4:15 PM,87.8,46.4,24,30.10,10.0,ESE,13.8,17.3,N/A,,Mostly Cloudy,120,2012-07-12 22:15:00
4:35 PM,89.6,46.4,22,30.09,10.0,ESE,10.4,-,N/A,,Overcast,110,2012-07-12 22:35:00
4:55 PM,89.6,46.4,22,30.08,10.0,East,8.1,-,N/A,,Mostly Cloudy,90,2012-07-12 22:55:00
5:15 PM,89.6,46.4,22,30.08,10.0,ESE,8.1,-,N/A,,Clear,110,2012-07-12 23:15:00
5:35 PM,87.8,46.4,24,30.07,10.0,ESE,8.1,-,N/A,,Clear,110,2012-07-12 23:35:00
5:55 PM,87.8,46.4,24,30.06,10.0,East,6.9,-,N/A,,Scattered Clouds,100,2012-07-12 23:55:00
6:15 PM,89.6,46.4,22,30.06,10.0,ESE,6.9,-,N/A,,Scattered Clouds,110,2012-07-13 00:15:00
6:35 PM,87.8,44.6,22,30.06,10.0,East,9.2,-,N/A,,Scattered Clouds,100,2012-07-13 00:35:00
6:55 PM,87.8,44.6,22,30.06,10.0,ESE,8.1,-,N/A,,Clear,110,2012-07-13 00:55:00
7:15 PM,87.8,44.6,22,30.05,10.0,ESE,8.1,-,N/A,,Clear,120,2012-07-13 01:15:00
7:35 PM,86.0,42.8,22,30.06,10.0,East,6.9,-,N/A,,Clear,100,2012-07-13 01:35:00
7:55 PM,86.0,42.8,22,30.06,10.0,ESE,8.1,-,N/A,,Clear,120,2012-07-13 01:55:00
8:15 PM,84.2,42.8,23,30.07,10.0,ESE,5.8,-,N/A,,Clear,120,2012-07-13 02:15:00
8:35 PM,82.4,46.4,28,30.07,10.0,ESE,11.5,-,N/A,,Clear,120,2012-07-13 02:35:00
8:55 PM,80.6,46.4,30,30.08,10.0,ESE,8.1,-,N/A,,Clear,120,2012-07-13 02:55:00
9:15 PM,80.6,46.4,30,30.09,10.0,ESE,5.8,-,N/A,,Clear,120,2012-07-13 03:15:00
9:35 PM,78.8,46.4,32,30.11,10.0,SE,4.6,-,N/A,,Clear,130,2012-07-13 03:35:00
9:55 PM,78.8,46.4,32,30.12,10.0,SE,4.6,-,N/A,,Clear,130,2012-07-13 03:55:00
10:15 PM,77.0,46.4,34,30.12,10.0,SE,4.6,-,N/A,,Clear,140,2012-07-13 04:15:00
10:35 PM,77.0,46.4,34,30.14,10.0,ESE,3.5,-,N/A,,Clear,120,2012-07-13 04:35:00
10:55 PM,77.0,48.2,36,30.15,10.0,ESE,4.6,-,N/A,,Clear,120,2012-07-13 04:55:00
11:15 PM,77.0,48.2,36,30.15,10.0,ESE,4.6,-,N/A,,Clear,120,2012-07-13 05:15:00
11:35 PM,73.4,48.2,41,30.15,10.0,East,4.6,-,N/A,,Clear,100,2012-07-13 05:35:00
11:55 PM,75.2,48.2,38,30.16,10.0,East,5.8,-,N/A,,Clear,100,2012-07-13 05:55:00